• Join FlightAware (Why Join?)
  • Login
  • US Flag 
12:41AM EDT


 

Airport Tracker/Info


-or-


 

Live Flight TrackerFlight Track Log ✈ N431AF ✈ 26-Aug-2013 ✈ KAUS - KPRX

Flight Track Log - Related Links

Times and Time Zones

All times are in EDT time to prevent confusion due to time zone crossing. See the N431AF flight status page for this flight to view local times or setup timezone preferences in your user account.

Time Position Orientation Groundspeed Altitude Reporting Facility
EDT Latitude Longitude Course Direction KTS MPH feet Rate Location/Type
05:37PM 30.1697 -97.6061 28° Northeast 74 85 2,900  Level Houston Center
05:38PM 30.1925 -97.5900 31° Northeast 80 92 3,700 720 Climbing Houston Center
05:39PM 30.2089 -97.5761 36° Northeast 74 85 4,400 600 Climbing Houston Center
05:40PM 30.2233 -97.5567 49° Northeast 76 87 5,000 360 Climbing Houston Center
05:41PM 30.3728 -97.5595 28° Northeast  Level Estimated
05:41PM 30.2419 -97.5317 49° Northeast 96 110 5,200  Level Houston Center
05:42PM 30.4025 -97.5411 28° Northeast  Level Estimated
05:42PM 30.2631 -97.5083 44° Northeast 106 122 5,600  Level Houston Center
05:43PM 30.2844 -97.4906 36° Northeast 97 112 6,100 480 Climbing Houston Center
05:44PM 30.3083 -97.4781 24° Northeast 95 109 6,600 420 Climbing Houston Center
05:45PM 30.3383 -97.4789 359° North 104 120 7,000 180 Climbing Houston Center
05:46PM 30.3719 -97.4744 North 116 133 7,000  Level Houston Center
05:47PM 30.4158 -97.4747 360° North 129 148 7,000  Level Houston Center
05:48PM 30.4497 -97.4714 North 124 143 7,000  Level Houston Center
05:49PM 30.4853 -97.4708 North 125 144 7,000  Level Houston Center
05:50PM 30.5206 -97.4681 North 126 145 7,000  Level Houston Center
05:51PM 30.5567 -97.4653 North 127 146 7,000  Level Houston Center
05:52PM 30.5933 -97.4628 North 129 148 7,000 240 Level Houston Center
05:53PM 30.6281 -97.4606 North 126 145 7,500 420 Climbing Houston Center
05:54PM 30.6589 -97.4589 North 115 132 7,900 420 Climbing Houston Center
05:55PM 30.6894 -97.4572 North 110 127 8,400 480 Climbing Houston Center
05:56PM 30.7258 -97.4583 358° North 110 127 9,000 240 Climbing Houston Center
05:57PM 30.7594 -97.4542 North 116 133 9,000  Level Houston Center
05:58PM 30.7947 -97.4461 11° North 126 145 9,000  Level Houston Center
05:59PM 30.8325 -97.4442 North 133 153 9,000  Level Houston Center
06:00PM 30.8714 -97.4536 348° North 139 160 9,000  Level Houston Center
06:02PM 30.9100 -97.4611 351° North 139 160 9,000  Level Houston Center
06:03PM 30.9461 -97.4681 351° North 132 152 9,000  Level Houston Center
06:04PM 30.9828 -97.4750 351° North 131 151 9,000  Level Houston Center
06:05PM 31.0208 -97.4797 354° North 134 154 9,000  Level Houston Center
06:06PM 31.0553 -97.4664 18° North 130 150 9,000  Level Houston Center
06:07PM 31.0858 -97.4458 30° Northeast 126 145 9,000 60 Level Houston Center
06:08PM 31.1297 -97.4086 36° Northeast 128 147 9,200 60 Climbing Fort Worth Center
06:10PM 31.1647 -97.3790 36° Northeast  Level FlightAware Approximate
06:17PM 31.3549 -97.2212 33° Northeast  Level FlightAware Approximate
06:18PM 31.3829 -97.2002 33° Northeast  Level FlightAware Approximate
06:19PM 31.4109 -97.1791 33° Northeast  Level FlightAware Approximate
06:20PM 31.4389 -97.1580 33° Northeast  Level FlightAware Approximate
06:21PM 31.4668 -97.1369 33° Northeast  Level FlightAware Approximate
06:22PM 31.4948 -97.1158 33° Northeast  Level FlightAware Approximate
06:23PM 31.5179 -97.0882 45° Northeast  Level FlightAware Approximate
06:24PM 31.5410 -97.0607 45° Northeast  Level FlightAware Approximate
06:25PM 31.5639 -97.0326 47° Northeast  Level FlightAware Approximate
06:26PM 31.5865 -97.0044 47° Northeast  Level FlightAware Approximate
06:27PM 31.6091 -96.9762 47° Northeast  Level FlightAware Approximate
06:28PM 31.6317 -96.9480 47° Northeast  Level FlightAware Approximate
06:29PM 31.6542 -96.9198 47° Northeast  Level FlightAware Approximate
06:30PM 31.6768 -96.8916 47° Northeast  Level FlightAware Approximate
06:31PM 31.6989 -96.8629 48° Northeast  Level FlightAware Approximate
06:32PM 31.7210 -96.8341 48° Northeast  Level FlightAware Approximate
06:33PM 31.7430 -96.8053 48° Northeast  Level FlightAware Approximate
06:34PM 31.7650 -96.7765 48° Northeast  Level FlightAware Approximate
06:35PM 31.7870 -96.7476 48° Northeast  Level FlightAware Approximate
06:35PM 31.7439 -96.7464 48° Northeast 133 153 11,000  Level Fort Worth Center
06:36PM 31.8090 -96.7188 48° Northeast  Level FlightAware Approximate
06:36PM 31.7647 -96.7194 48° Northeast 128 147 11,000  Level Fort Worth Center
06:37PM 31.8310 -96.6899 48° Northeast  Level FlightAware Approximate
06:37PM 31.7853 -96.6947 46° Northeast 116 133 11,000  Level Fort Worth Center
06:38PM 31.8530 -96.6610 48° Northeast  Level FlightAware Approximate
06:38PM 31.8081 -96.6653 48° Northeast 116 133 11,000  Level Fort Worth Center
06:39PM 31.8750 -96.6321 48° Northeast  Level FlightAware Approximate
06:39PM 31.8394 -96.6528 19° North 116 133 11,000  Level Fort Worth Center
06:40PM 31.8664 -96.6306 35° Northeast 116 133 11,000  Level Fort Worth Center
06:41PM 31.8956 -96.6131 27° Northeast 116 133 11,000  Level Fort Worth Center
06:42PM 31.9247 -96.5983 23° Northeast 116 133 11,000  Level Fort Worth Center
06:43PM 31.9539 -96.5761 33° Northeast 111 128 11,000  Level Fort Worth Center
06:44PM 31.9850 -96.5586 26° Northeast 111 128 11,000  Level Fort Worth Center
06:45PM 32.0161 -96.5386 29° Northeast 117 135 11,000  Level Fort Worth Center
06:46PM 32.0453 -96.5189 30° Northeast 117 135 11,000  Level Fort Worth Center
06:47PM 32.0744 -96.5014 27° Northeast 117 135 11,000  Level Fort Worth Center
06:48PM 32.1056 -96.4814 29° Northeast 117 135 11,000  Level Fort Worth Center
06:49PM 32.1347 -96.4592 33° Northeast 117 135 11,000  Level Fort Worth Center
06:50PM 32.1636 -96.4392 30° Northeast 117 135 11,000  Level Fort Worth Center
06:51PM 32.1947 -96.4192 29° Northeast 117 135 11,000  Level Fort Worth Center
06:52PM 32.2261 -96.3992 28° Northeast 117 135 11,000 -60 Level Fort Worth Center
06:53PM 32.2550 -96.3817 27° Northeast 123 142 10,900 -60 Descending Fort Worth Center
06:54PM 32.2883 -96.3567 32° Northeast 123 142 10,900  Level Fort Worth Center
06:55PM 32.3153 -96.3417 25° Northeast 118 136 10,900  Level Fort Worth Center
06:56PM 32.3486 -96.3192 30° Northeast 123 142 10,900  Level Fort Worth Center
06:57PM 32.3775 -96.3014 27° Northeast 123 142 10,900  Level Fort Worth Center
06:58PM 32.4108 -96.2789 30° Northeast 123 142 10,900  Level Fort Worth Center
06:59PM 32.4356 -96.2589 34° Northeast 123 142 10,900  Level Fort Worth Center
07:00PM 32.4689 -96.2389 27° Northeast 123 142 11,000  Climbing Fort Worth Center
07:01PM 32.4958 -96.2211 29° Northeast 123 142 11,000 -60 Level Fort Worth Center
07:02PM 32.5311 -96.1986 28° Northeast 123 142 10,900 -60 Descending Fort Worth Center
07:03PM 32.5603 -96.1811 27° Northeast 123 142 10,900  Level Fort Worth Center
07:04PM 32.5933 -96.1583 30° Northeast 123 142 10,900  Level Fort Worth Center
07:05PM 32.6203 -96.1381 32° Northeast 123 142 11,000  Climbing Fort Worth Center
07:06PM 32.6533 -96.1156 30° Northeast 123 142 11,000  Level Fort Worth Center
07:07PM 32.6803 -96.0953 32° Northeast 123 142 11,000  Level Fort Worth Center
07:08PM 32.7156 -96.0728 28° Northeast 123 142 11,000  Level Fort Worth Center
07:09PM 32.7447 -96.0550 27° Northeast 123 142 11,000 -60 Level Fort Worth Center
07:10PM 32.7842 -96.0319 26° Northeast 123 142 10,900 -300 Descending Fort Worth Center
07:11PM 32.8153 -96.0119 28° Northeast 135 155 10,500 -420 Descending Fort Worth Center
07:12PM 32.8544 -95.9842 31° Northeast 141 162 10,100 -420 Descending Fort Worth Center
07:13PM 32.8856 -95.9614 32° Northeast 141 162 9,700 -480 Descending Fort Worth Center
07:14PM 32.9250 -95.9358 29° Northeast 141 162 9,200 -480 Descending Fort Worth Center
07:15PM 32.9561 -95.9156 29° Northeast 141 162 8,800 -420 Descending Fort Worth Center
07:16PM 32.9953 -95.8900 29° Northeast 141 162 8,400 -420 Descending Fort Worth Center
07:17PM 33.0286 -95.8672 30° Northeast 141 162 8,000 -420 Descending Fort Worth Center
07:18PM 33.0678 -95.8394 31° Northeast 141 162 7,600 -420 Descending Fort Worth Center
07:19PM 33.1031 -95.8164 29° Northeast 141 162 7,200 -480 Descending Fort Worth Center
07:20PM 33.1422 -95.7908 29° Northeast 141 162 6,700 -480 Descending Fort Worth Center
07:21PM 33.1753 -95.7656 33° Northeast 141 162 6,300 -480 Descending Fort Worth Center
07:22PM 33.2167 -95.7397 28° Northeast 141 162 5,800 -480 Descending Fort Worth Center
07:23PM 33.2519 -95.7144 31° Northeast 148 170 5,400 -540 Descending Fort Worth Center
07:24PM 33.2911 -95.6864 31° Northeast 148 170 4,800 -600 Descending Fort Worth Center
07:25PM 33.3264 -95.6658 26° Northeast 148 170 4,300 -420 Descending Fort Worth Center
07:26PM 33.3617 -95.6428 29° Northeast 143 165 4,000 -180 Descending Fort Worth Center
07:27PM 33.3906 -95.6197 34° Northeast 130 150 4,000  Level Fort Worth Center